Time;durP1;ratioP1;P1;durP2;ratioP2;P2;SDS_P1;SDS_P2;PMS_P1;PMS_P2;Temp;Humidity;BMP_temperature;BMP_pressure;BME280_temperature;BME280_humidity;BME280_pressure;Samples;Min_cycle;Max_cycle;Signal;HPM_P1;HPM_P2
2024/04/16 00:00:55;;;;;;;10.40;3.20;;;;;;;4.00;100.00;99000.53;5431765;26;20383;-78
2024/04/16 00:03:25;;;;;;;8.57;2.90;;;;;;;4.02;100.00;99006.47;5395922;26;20338;-79
2024/04/16 00:05:55;;;;;;;7.57;3.22;;;;;;;3.98;100.00;99009.97;5398338;26;20331;-79
2024/04/16 00:08:25;;;;;;;8.38;3.08;;;;;;;4.00;100.00;99002.44;5402744;26;20357;-78
2024/04/16 00:10:52;;;;;;;8.57;3.10;;;;;;;3.89;100.00;99002.50;5433461;26;20409;-78
2024/04/16 00:13:23;;;;;;;8.40;3.25;;;;;;;3.94;100.00;99003.56;5402598;26;20824;-80
2024/04/16 00:16:05;;;;;;;7.93;3.15;;;;;;;4.00;100.00;99002.44;5432584;26;20332;-81
2024/04/16 00:18:36;;;;;;;9.95;3.63;;;;;;;4.08;100.00;99005.34;5402443;26;20331;-77
2024/04/16 00:21:06;;;;;;;7.97;2.95;;;;;;;4.08;100.00;99005.34;5403096;26;20391;-79
2024/04/16 00:23:36;;;;;;;10.68;2.95;;;;;;;4.20;100.00;99001.53;5402143;26;20750;-80
2024/04/16 00:26:04;;;;;;;9.85;2.90;;;;;;;4.16;100.00;98998.59;5402677;26;20892;-79
2024/04/16 00:28:39;;;;;;;11.65;3.20;;;;;;;4.19;100.00;99016.06;5430266;26;20371;-78
2024/04/16 00:31:06;;;;;;;8.25;2.92;;;;;;;4.26;100.00;99000.41;5402601;26;20324;-79
2024/04/16 00:33:36;;;;;;;6.07;2.22;;;;;;;4.36;100.00;98978.78;5431447;26;20731;-80
2024/04/16 00:36:07;;;;;;;7.30;2.55;;;;;;;4.27;100.00;98999.31;5432434;26;20862;-78
2024/04/16 00:38:37;;;;;;;7.67;2.70;;;;;;;4.25;100.00;99001.47;5402539;26;20978;-79
2024/04/16 00:41:04;;;;;;;9.13;3.03;;;;;;;4.35;100.00;98996.03;5400336;26;20375;-79
2024/04/16 00:43:34;;;;;;;7.95;2.75;;;;;;;4.21;100.00;99001.25;5403899;26;20363;-80
2024/04/16 00:46:04;;;;;;;5.20;2.42;;;;;;;4.17;100.00;98996.69;5403484;26;20335;-78
2024/04/16 00:48:34;;;;;;;6.53;2.55;;;;;;;4.24;100.00;98995.31;5401528;26;20353;-79
2024/04/16 00:51:02;;;;;;;7.90;2.92;;;;;;;4.14;100.00;98989.97;5430040;26;20370;-78
2024/04/16 00:53:35;;;;;;;6.72;2.58;;;;;;;4.13;100.00;99001.84;5401875;26;20404;-78
2024/04/16 00:56:05;;;;;;;8.63;2.70;;;;;;;4.10;100.00;99002.38;5426945;26;20386;-80
2024/04/16 00:58:37;;;;;;;5.60;2.45;;;;;;;4.01;100.00;99004.06;5403003;26;20341;-79
2024/04/16 01:01:05;;;;;;;6.13;2.60;;;;;;;4.10;100.00;99002.38;5403790;26;20327;-78
2024/04/16 01:03:35;;;;;;;5.90;2.33;;;;;;;4.11;100.00;99006.69;5403344;26;20323;-79
2024/04/16 01:06:03;;;;;;;6.97;2.40;;;;;;;4.16;100.00;98990.50;5399704;26;20350;-78
2024/04/16 01:08:36;;;;;;;5.40;2.35;;;;;;;4.12;100.00;99002.91;5398000;26;20373;-81
2024/04/16 01:11:03;;;;;;;6.55;2.15;;;;;;;4.11;100.00;99019.34;5401529;26;20339;-80
2024/04/16 01:13:33;;;;;;;7.00;2.03;;;;;;;4.09;100.00;99008.84;5402333;26;20349;-78
2024/04/16 01:16:01;;;;;;;5.07;1.90;;;;;;;4.13;100.00;99009.91;5402708;26;20671;-79
2024/04/16 01:18:31;;;;;;;7.28;1.92;;;;;;;4.21;100.00;99013.88;5401569;26;20377;-79
2024/04/16 01:20:58;;;;;;;5.55;1.80;;;;;;;4.12;100.00;99010.19;5430602;26;20410;-79
2024/04/16 01:23:31;;;;;;;6.13;2.05;;;;;;;4.14;100.00;99008.00;5404723;26;20371;-79
2024/04/16 01:25:58;;;;;;;4.13;1.60;;;;;;;4.12;100.00;99016.38;5400834;26;20373;-79
2024/04/16 01:28:28;;;;;;;4.97;1.67;;;;;;;4.05;100.00;99013.19;5406452;26;20347;-79
2024/04/16 01:30:56;;;;;;;3.88;1.65;;;;;;;4.19;100.00;99010.69;5400305;26;20336;-79
2024/04/16 01:33:26;;;;;;;6.60;1.80;;;;;;;4.20;100.00;99012.31;5413443;26;20978;-79
2024/04/16 01:35:54;;;;;;;7.67;1.93;;;;;;;4.21;100.00;99001.25;5407414;26;20771;-80
2024/04/16 01:38:24;;;;;;;3.00;1.40;;;;;;;4.25;100.00;99006.88;5402222;26;23013;-77
2024/04/16 01:40:55;;;;;;;3.28;1.40;;;;;;;4.15;100.00;98996.97;5405114;26;20379;-77
2024/04/16 01:43:25;;;;;;;3.72;1.60;;;;;;;4.20;100.00;98994.25;5406895;26;20331;-78
2024/04/16 01:45:52;;;;;;;4.25;1.70;;;;;;;4.25;100.00;98993.41;5405650;26;20335;-77
2024/04/16 01:48:22;;;;;;;4.75;1.80;;;;;;;4.28;100.00;98989.34;5435241;26;20864;-76
2024/04/16 01:50:50;;;;;;;5.63;1.73;;;;;;;4.24;100.00;98992.59;5404511;26;20320;-76
2024/04/16 01:53:20;;;;;;;7.93;1.80;;;;;;;4.19;100.00;98986.44;5404057;26;20407;-77
2024/04/16 01:55:48;;;;;;;4.72;1.88;;;;;;;4.29;100.00;98991.75;5435860;26;20348;-77
2024/04/16 01:58:20;;;;;;;6.43;1.90;;;;;;;4.30;100.00;98981.81;5400166;26;20871;-77
2024/04/16 02:00:48;;;;;;;6.80;1.90;;;;;;;4.28;100.00;98989.34;5404976;26;20359;-77
2024/04/16 02:03:18;;;;;;;6.07;1.95;;;;;;;4.28;100.00;99000.13;5402809;26;21217;-76
2024/04/16 02:05:45;;;;;;;4.80;1.80;;;;;;;4.40;100.00;98995.19;5402556;26;21300;-79
2024/04/16 02:08:15;;;;;;;3.88;1.73;;;;;;;4.36;100.00;98999.53;5431175;26;20694;-75
2024/04/16 02:10:50;;;;;;;3.97;1.80;;;;;;;4.32;100.00;98999.28;5404378;26;20335;-78
2024/04/16 02:13:24;;;;;;;5.07;1.98;;;;;;;4.36;100.00;98991.44;5433737;26;20324;-77
2024/04/16 02:15:52;;;;;;;5.90;1.80;;;;;;;4.32;100.00;98995.78;5429351;26;20341;-77
2024/04/16 02:18:22;;;;;;;4.65;1.75;;;;;;;4.36;100.00;99002.22;5403188;26;20351;-77
2024/04/16 02:20:50;;;;;;;6.07;1.83;;;;;;;4.32;100.00;99001.16;5405225;26;20336;-78
2024/04/16 02:23:20;;;;;;;5.65;2.00;;;;;;;4.32;100.00;98998.47;5403831;26;20334;-76
2024/04/16 02:25:54;;;;;;;6.18;2.10;;;;;;;4.24;100.00;99000.69;5404653;26;20854;-78
2024/04/16 02:28:27;;;;;;;5.45;2.25;;;;;;;4.22;100.00;98996.66;5399473;26;20324;-77
2024/04/16 02:30:54;;;;;;;3.63;1.77;;;;;;;4.42;100.00;99001.91;5405373;26;20372;-77
2024/04/16 02:33:24;;;;;;;6.15;2.20;;;;;;;4.33;100.00;98994.72;5409269;26;20331;-78
2024/04/16 02:35:52;;;;;;;7.30;1.95;;;;;;;4.38;100.00;98990.09;5403761;26;20386;-78
2024/04/16 02:38:22;;;;;;;6.35;2.00;;;;;;;4.29;100.00;99002.53;5403904;26;20372;-78
2024/04/16 02:40:49;;;;;;;7.88;2.00;;;;;;;4.35;100.00;98990.66;5401086;26;20621;-77
2024/04/16 02:43:19;;;;;;;4.47;1.98;;;;;;;4.40;100.00;98992.50;5400573;26;21017;-78
2024/04/16 02:45:49;;;;;;;5.82;2.08;;;;;;;4.42;100.00;98990.34;5404217;26;20328;-77
2024/04/16 02:48:19;;;;;;;5.55;2.15;;;;;;;4.45;100.00;98997.84;5434094;26;20382;-77
2024/04/16 02:50:47;;;;;;;7.10;2.00;;;;;;;4.39;100.00;98990.88;5404456;26;20327;-77
2024/04/16 02:53:17;;;;;;;6.95;2.33;;;;;;;4.35;100.00;98985.28;5403279;26;20355;-78
2024/04/16 02:55:44;;;;;;;4.68;2.20;;;;;;;4.44;100.00;98990.84;5404304;26;20417;-76
2024/04/16 02:58:14;;;;;;;6.93;2.38;;;;;;;4.33;100.00;98986.63;5403656;26;20327;-77
2024/04/16 03:00:42;;;;;;;7.07;2.17;;;;;;;4.35;100.00;98989.84;5430472;26;20387;-78
2024/04/16 03:03:15;;;;;;;7.93;2.63;;;;;;;4.46;100.00;98999.47;5406200;26;20608;-76
2024/04/16 03:05:42;;;;;;;7.55;2.50;;;;;;;4.26;100.00;99003.88;5403068;26;21263;-76
2024/04/16 03:08:13;;;;;;;5.85;2.40;;;;;;;4.33;100.00;98997.41;5431834;26;20332;-77
2024/04/16 03:10:40;;;;;;;6.00;2.47;;;;;;;4.38;100.00;99002.75;5404349;26;20331;-77
2024/04/16 03:13:11;;;;;;;6.72;2.30;;;;;;;4.35;100.00;99000.59;5404462;26;20347;-77
2024/04/16 03:15:38;;;;;;;7.68;2.70;;;;;;;4.37;100.00;99003.84;5405522;26;20359;-76
2024/04/16 03:18:08;;;;;;;6.18;2.15;;;;;;;4.33;100.00;99005.47;5401208;26;20354;-77
2024/04/16 03:20:39;;;;;;;5.22;2.33;;;;;;;4.18;100.00;99001.78;5405458;26;20771;-77
2024/04/16 03:23:09;;;;;;;7.10;2.28;;;;;;;4.36;100.00;99004.91;5428035;26;20328;-78
2024/04/16 03:25:40;;;;;;;5.28;2.30;;;;;;;4.22;100.00;99008.22;5398350;26;20829;-77
2024/04/16 03:28:10;;;;;;;7.13;2.25;;;;;;;4.26;100.00;99011.97;5404489;26;20419;-77
2024/04/16 03:30:37;;;;;;;5.80;2.30;;;;;;;4.32;100.00;99012.75;5400974;26;20324;-76
2024/04/16 03:33:07;;;;;;;8.88;2.60;;;;;;;4.42;100.00;99012.69;5400121;26;20403;-77
2024/04/16 03:35:35;;;;;;;4.75;2.20;;;;;;;4.33;100.00;99014.34;5402542;26;20335;-78
2024/04/16 03:38:07;;;;;;;3.85;2.20;;;;;;;4.36;100.00;99011.09;5405222;26;20327;-77
2024/04/16 03:40:37;;;;;;;5.97;2.20;;;;;;;4.22;100.00;99018.19;5433253;26;20419;-78
2024/04/16 03:43:07;;;;;;;5.18;2.00;;;;;;;4.29;100.00;99016.00;5400756;26;20676;-76
2024/04/16 03:45:35;;;;;;;5.45;2.10;;;;;;;4.23;100.00;99015.22;5404552;26;21125;-78
2024/04/16 03:48:05;;;;;;;7.18;2.40;;;;;;;4.28;100.00;99018.97;5403035;26;20323;-78
2024/04/16 03:50:33;;;;;;;4.97;2.05;;;;;;;4.31;100.00;99018.41;5429668;26;20328;-77
2024/04/16 03:53:04;;;;;;;5.35;2.10;;;;;;;4.26;100.00;99013.88;5402232;26;20843;-77
2024/04/16 03:55:36;;;;;;;4.38;2.10;;;;;;;4.30;100.00;99004.16;5431347;26;20359;-78
2024/04/16 03:58:06;;;;;;;6.80;2.00;;;;;;;4.17;100.00;99010.97;5400006;26;20374;-78
2024/04/16 04:03:23;;;;;;;8.30;2.33;;;;;;;4.20;100.00;99017.69;5402830;26;20356;-77
2024/04/16 04:05:51;;;;;;;5.43;2.10;;;;;;;4.11;100.00;99020.13;5403618;26;20371;-76
2024/04/16 04:08:21;;;;;;;3.63;2.08;;;;;;;3.93;100.00;99018.88;5433400;26;20332;-78
2024/04/16 04:10:51;;;;;;;5.65;2.00;;;;;;;3.98;100.00;99023.44;5405363;26;20331;-77
2024/04/16 04:13:21;;;;;;;5.00;2.40;;;;;;;4.00;100.00;99010.50;5404601;26;20713;-78
2024/04/16 04:15:48;;;;;;;7.33;2.00;;;;;;;4.08;100.00;99024.19;5403216;26;20382;-77
2024/04/16 04:18:18;;;;;;;7.38;2.72;;;;;;;4.08;100.00;99021.50;5431830;26;20335;-77
2024/04/16 04:20:47;;;;;;;4.77;2.30;;;;;;;4.18;100.00;99028.72;5405937;26;20331;-79
2024/04/16 04:23:18;;;;;;;5.57;2.80;;;;;;;4.07;100.00;99024.47;5403181;26;20495;-78
2024/04/16 04:25:45;;;;;;;6.53;2.55;;;;;;;4.11;100.00;99036.28;5402072;26;20387;-76
2024/04/16 04:28:20;;;;;;;6.05;2.30;;;;;;;4.33;100.00;99027.81;5397425;26;20341;-77
2024/04/16 04:30:48;;;;;;;6.30;2.30;;;;;;;4.37;100.00;99038.84;5404258;26;20343;-77
2024/04/16 04:33:18;;;;;;;7.10;2.42;;;;;;;4.35;100.00;99036.44;5428981;26;20375;-76
2024/04/16 04:35:46;;;;;;;7.17;2.27;;;;;;;4.34;100.00;99036.72;5404426;26;20399;-77
2024/04/16 04:38:16;;;;;;;4.60;2.38;;;;;;;4.47;100.00;99033.38;5399675;26;20320;-77
2024/04/16 04:40:43;;;;;;;4.87;2.20;;;;;;;4.37;100.00;99034.25;5404114;26;20379;-77
2024/04/16 04:43:13;;;;;;;4.03;2.08;;;;;;;4.39;100.00;99031.28;5403828;26;20369;-77
2024/04/16 04:45:43;;;;;;;7.03;2.83;;;;;;;4.41;100.00;99034.50;5403523;26;20390;-77
2024/04/16 04:48:14;;;;;;;4.43;2.08;;;;;;;4.31;100.00;99042.66;5392274;26;20324;-76
2024/04/16 04:50:41;;;;;;;5.25;2.47;;;;;;;4.30;100.00;99054.53;5402466;26;20323;-77
2024/04/16 04:53:11;;;;;;;5.85;2.33;;;;;;;4.33;100.00;99049.38;5429656;26;20324;-77
2024/04/16 04:55:43;;;;;;;3.85;2.00;;;;;;;4.52;100.00;99043.34;5401572;26;20335;-79
2024/04/16 04:58:13;;;;;;;5.88;2.10;;;;;;;4.48;100.00;99045.78;5396714;26;20324;-76
2024/04/16 05:00:44;;;;;;;4.10;2.00;;;;;;;4.45;100.00;99045.53;5393729;26;20879;-77
2024/04/16 05:03:14;;;;;;;4.85;2.17;;;;;;;4.51;100.00;99047.09;5393378;26;20332;-76
2024/04/16 05:05:45;;;;;;;5.63;2.30;;;;;;;4.45;100.00;99048.22;5399087;26;20724;-76
2024/04/16 05:08:15;;;;;;;4.80;2.30;;;;;;;4.53;100.00;99050.31;5427063;26;20320;-78
2024/04/16 05:10:49;;;;;;;4.95;2.30;;;;;;;4.49;100.00;99057.34;5391588;26;20354;-78
2024/04/16 05:13:19;;;;;;;6.53;2.15;;;;;;;4.50;100.00;99058.97;5402312;26;20515;-76
2024/04/16 05:15:49;;;;;;;5.13;2.43;;;;;;;4.65;100.00;99055.38;5398601;26;20715;-77
2024/04/16 05:18:19;;;;;;;7.38;2.30;;;;;;;4.77;100.00;99058.50;5397784;26;20331;-79
2024/04/16 05:20:47;;;;;;;4.17;2.20;;;;;;;4.60;100.00;99059.69;5403006;26;20871;-76
2024/04/16 05:23:18;;;;;;;6.50;2.30;;;;;;;4.86;100.00;99064.09;5429842;26;20335;-77
2024/04/16 05:25:52;;;;;;;5.72;2.10;;;;;;;4.79;100.00;99061.72;5401837;26;20664;-76
2024/04/16 05:28:23;;;;;;;5.43;2.00;;;;;;;4.89;100.00;99064.34;5397124;26;20810;-77
2024/04/16 05:30:53;;;;;;;5.63;1.95;;;;;;;4.90;100.00;99068.66;5398558;26;20928;-75
2024/04/16 05:33:23;;;;;;;4.00;1.90;;;;;;;4.86;100.00;99062.22;5398403;26;20675;-75
2024/04/16 05:35:50;;;;;;;5.35;2.00;;;;;;;4.90;100.00;99059.75;5429277;26;20404;-77
2024/04/16 05:38:21;;;;;;;6.55;2.00;;;;;;;4.92;100.00;99065.69;5398523;26;20330;-77
2024/04/16 05:40:48;;;;;;;4.03;1.88;;;;;;;5.01;100.00;99060.47;5401943;26;20315;-79
2024/04/16 05:43:18;;;;;;;5.18;2.30;;;;;;;5.09;100.00;99065.25;5397464;26;20350;-80
2024/04/16 05:45:46;;;;;;;5.35;2.17;;;;;;;5.03;100.00;99069.91;5392510;26;20329;-78
2024/04/16 05:48:18;;;;;;;4.15;1.90;;;;;;;5.06;100.00;99073.94;5394609;26;20371;-78
2024/04/16 05:50:46;;;;;;;7.22;2.30;;;;;;;5.18;100.00;99077.06;5399444;26;20330;-77
2024/04/16 05:53:17;;;;;;;5.77;2.60;;;;;;;5.14;100.00;99072.50;5400863;26;20410;-78
2024/04/16 05:55:45;;;;;;;6.28;2.10;;;;;;;5.12;100.00;99078.16;5400909;26;20831;-77
2024/04/16 05:58:15;;;;;;;8.30;2.38;;;;;;;5.10;100.00;99075.75;5429084;26;20335;-78
2024/04/16 06:00:43;;;;;;;3.95;2.05;;;;;;;5.17;100.00;99067.34;5428029;26;21566;-77
2024/04/16 06:03:14;;;;;;;6.82;2.80;;;;;;;5.10;100.00;99072.28;5397208;26;20335;-78
2024/04/16 06:05:44;;;;;;;7.32;2.47;;;;;;;5.07;100.00;99075.53;5396577;26;20328;-77
2024/04/16 06:08:14;;;;;;;6.15;2.40;;;;;;;5.11;100.00;99081.97;5398161;26;20358;-77
2024/04/16 06:10:41;;;;;;;6.13;2.80;;;;;;;5.24;100.00;99067.03;5399893;26;20336;-76
2024/04/16 06:13:11;;;;;;;6.13;2.58;;;;;;;5.13;100.00;99070.91;5423051;26;20722;-77
2024/04/16 06:15:39;;;;;;;6.32;2.55;;;;;;;5.11;100.00;99077.38;5429824;26;20339;-77
2024/04/16 06:18:12;;;;;;;6.23;2.53;;;;;;;5.32;100.00;99073.69;5402521;26;20335;-76
2024/04/16 06:20:40;;;;;;;5.63;2.53;;;;;;;5.32;100.00;99079.91;5401937;26;20387;-75
2024/04/16 06:23:12;;;;;;;5.55;2.30;;;;;;;5.33;100.00;99081.50;5404798;26;20350;-76
2024/04/16 06:25:40;;;;;;;7.03;2.53;;;;;;;5.36;100.00;99075.53;5403489;26;20320;-76
2024/04/16 06:28:10;;;;;;;5.53;2.50;;;;;;;5.34;100.00;99090.41;5431578;26;20720;-76
2024/04/16 06:30:37;;;;;;;7.43;2.30;;;;;;;5.32;100.00;99087.16;5402258;26;20700;-76
2024/04/16 06:33:07;;;;;;;6.20;2.33;;;;;;;5.34;100.00;99083.09;5433407;26;20875;-74
2024/04/16 06:35:35;;;;;;;5.90;2.30;;;;;;;5.59;100.00;99094.72;5432508;26;20376;-76
2024/04/16 06:38:05;;;;;;;5.78;2.20;;;;;;;5.63;100.00;99101.16;5316995;26;20354;-80
2024/04/16 06:40:36;;;;;;;5.93;2.13;;;;;;;5.52;100.00;99089.66;5355136;26;20331;-79
2024/04/16 06:43:06;;;;;;;6.35;2.10;;;;;;;5.79;100.00;99094.53;5361180;26;20467;-79
2024/04/16 06:45:34;;;;;;;5.28;2.00;;;;;;;5.60;100.00;99096.34;5349826;26;20327;-78
2024/04/16 06:48:04;;;;;;;5.28;2.03;;;;;;;5.55;100.00;99105.31;5352400;26;20339;-79
2024/04/16 06:50:32;;;;;;;5.03;1.88;;;;;;;5.53;100.00;99102.06;5366988;26;20402;-78
2024/04/16 06:53:02;;;;;;;2.65;1.60;;;;;;;5.52;100.00;99099.66;5341215;26;20342;-79
2024/04/16 06:55:30;;;;;;;2.92;1.50;;;;;;;5.61;100.00;99109.56;5362587;26;20332;-78
2024/04/16 06:58:03;;;;;;;3.78;1.60;;;;;;;5.56;100.00;99116.91;5340377;26;20346;-79
2024/04/16 07:00:31;;;;;;;3.03;1.40;;;;;;;5.62;100.00;99110.34;5346553;26;20339;-79
2024/04/16 07:03:02;;;;;;;4.03;1.67;;;;;;;5.69;100.00;99105.44;5354430;26;20338;-79
2024/04/16 07:05:29;;;;;;;4.72;2.00;;;;;;;5.78;100.00;99111.00;5348686;26;20446;-78
2024/04/16 07:07:59;;;;;;;3.50;1.73;;;;;;;6.13;100.00;99112.53;5362875;26;20342;-79
2024/04/16 07:10:27;;;;;;;4.03;1.85;;;;;;;6.12;100.00;99119.03;5366291;26;20334;-79
2024/04/16 07:12:57;;;;;;;6.28;2.00;;;;;;;6.20;100.00;99122.16;5343550;26;20342;-79
2024/04/16 07:15:27;;;;;;;4.23;2.00;;;;;;;6.51;100.00;99113.69;5350887;26;20492;-79
2024/04/16 07:17:57;;;;;;;4.07;2.10;;;;;;;6.62;100.00;99118.63;5345950;26;20381;-79
2024/04/16 07:20:25;;;;;;;4.85;2.08;;;;;;;6.68;100.00;99127.47;5365726;26;20331;-79
2024/04/16 07:22:55;;;;;;;5.07;2.30;;;;;;;6.66;100.00;99126.16;5341060;26;20352;-79
2024/04/16 07:25:23;;;;;;;5.75;2.53;;;;;;;6.44;100.00;99122.94;5351539;26;20378;-79
2024/04/16 07:27:53;;;;;;;4.73;2.40;;;;;;;6.38;100.00;99132.22;5373012;26;20357;-79
2024/04/16 07:30:20;;;;;;;5.18;2.65;;;;;;;6.49;100.00;99130.19;5380418;26;20382;-78
2024/04/16 07:32:53;;;;;;;4.80;2.40;;;;;;;6.47;100.00;99124.25;5349564;26;20746;-79
2024/04/16 07:35:21;;;;;;;5.75;2.80;;;;;;;6.33;100.00;99140.38;5342713;26;21308;-79
2024/04/16 07:37:52;;;;;;;5.13;2.60;;;;;;;6.36;100.00;99139.00;5313814;26;20350;-79
2024/04/16 07:40:19;;;;;;;5.20;2.00;;;;;;;6.29;100.00;99137.44;5362740;26;20347;-78
2024/04/16 07:42:49;;;;;;;7.10;2.45;;;;;;;6.43;100.00;99144.84;5359474;26;20863;-79
2024/04/16 07:45:17;;;;;;;5.47;2.20;;;;;;;6.58;100.00;99147.34;5344551;26;21089;-79
2024/04/16 07:47:47;;;;;;;4.78;2.22;;;;;;;6.62;100.00;99145.69;5348533;26;20363;-79
2024/04/16 07:50:17;;;;;;;4.82;2.50;;;;;;;6.66;100.00;99145.09;5345053;26;20335;-78
2024/04/16 07:52:47;;;;;;;6.78;2.90;;;;;;;6.77;100.00;99146.56;5355580;26;20338;-78
2024/04/16 07:55:15;;;;;;;6.32;3.05;;;;;;;6.77;100.00;99155.47;5377330;26;20349;-78
2024/04/16 07:57:45;;;;;;;5.72;2.90;;;;;;;6.71;100.00;99163.94;5347119;26;20352;-79
2024/04/16 08:00:13;;;;;;;6.68;2.85;;;;;;;6.77;100.00;99158.19;5337682;26;20346;-78
2024/04/16 08:02:43;;;;;;;8.88;3.90;;;;;;;6.75;100.00;99156.88;5372604;26;20903;-78
2024/04/16 08:05:11;;;;;;;7.68;4.10;;;;;;;6.85;100.00;99161.31;5358521;26;20361;-78
2024/04/16 08:07:45;;;;;;;6.65;3.30;;;;;;;6.57;100.00;99163.84;5361122;26;20338;-78
2024/04/16 08:10:12;;;;;;;6.90;3.70;;;;;;;6.63;100.00;99158.09;5347612;26;20344;-78
2024/04/16 08:12:43;;;;;;;7.60;4.30;;;;;;;6.75;100.00;99173.91;5366752;26;20836;-79
2024/04/16 08:15:10;;;;;;;8.20;4.80;;;;;;;7.10;100.00;99162.88;5340418;26;20418;-78
2024/04/16 08:17:41;;;;;;;11.30;5.95;;;;;;;7.15;100.00;99173.59;5348021;26;20832;-78
2024/04/16 08:20:09;;;;;;;7.93;4.18;;;;;;;7.32;100.00;99173.06;5351061;26;20327;-78
2024/04/16 08:22:39;;;;;;;7.45;3.90;;;;;;;7.48;100.00;99174.44;5343878;26;20371;-78
2024/04/16 08:25:09;;;;;;;10.35;4.60;;;;;;;7.34;100.00;99181.69;5335249;26;20335;-78
2024/04/16 08:27:39;;;;;;;10.45;4.20;;;;;;;7.64;100.00;99176.88;5336974;26;20342;-79
2024/04/16 08:30:08;;;;;;;8.73;4.70;;;;;;;7.91;100.00;99169.91;5337031;26;20334;-78
2024/04/16 08:32:38;;;;;;;8.55;4.22;;;;;;;7.93;100.00;99184.75;5346503;26;20331;-78
2024/04/16 08:35:11;;;;;;;8.57;4.57;;;;;;;8.03;100.00;99178.34;5337003;26;20342;-79
2024/04/16 08:37:41;;;;;;;7.47;4.30;;;;;;;8.06;100.00;99183.16;5321598;26;20351;-78
2024/04/16 08:40:11;;;;;;;8.50;4.78;;;;;;;8.21;100.00;99192.91;5350431;26;20919;-78
2024/04/16 08:42:43;;;;;;;7.50;4.60;;;;;;;8.14;100.00;99185.16;5346391;26;21459;-79
2024/04/16 08:45:11;;;;;;;10.80;5.47;;;;;;;8.07;100.00;99194.81;5340268;26;23895;-79
2024/04/16 08:47:41;;;;;;;9.30;5.27;;;;;;;8.27;100.00;99193.59;5343300;26;20514;-78
2024/04/16 08:50:09;;;;;;;9.35;5.53;;;;;;;8.22;100.00;99199.94;5333182;26;21116;-79
2024/04/16 08:52:41;;;;;;;9.93;6.00;;;;;;;8.27;100.00;99205.28;5365665;26;20430;-79
2024/04/16 08:55:11;;;;;;;12.50;5.90;;;;;;;8.44;100.00;99199.25;5333388;26;20835;-79
2024/04/16 08:57:42;;;;;;;10.27;5.55;;;;;;;8.65;100.00;99204.28;5334573;26;20360;-79
2024/04/16 09:00:11;;;;;;;13.73;5.72;;;;;;;8.54;100.00;99203.69;5347973;26;20374;-78
2024/04/16 09:02:41;;;;;;;9.88;5.53;;;;;;;8.74;100.00;99209.78;5349671;26;20336;-78
2024/04/16 09:05:09;;;;;;;11.43;6.10;;;;;;;8.50;100.00;99217.03;5347035;26;20357;-79
2024/04/16 09:07:40;;;;;;;9.73;6.07;;;;;;;8.93;100.00;99225.94;5335577;26;20368;-78
2024/04/16 09:10:19;;;;;;;10.85;5.97;;;;;;;8.75;100.00;99216.81;5348662;26;20336;-81
2024/04/16 09:12:50;;;;;;;10.73;5.93;;;;;;;8.65;100.00;99220.53;5382369;26;20350;-79
2024/04/16 09:15:19;;;;;;;12.00;6.40;;;;;;;8.46;100.00;99223.38;5337408;26;20330;-78
2024/04/16 09:17:50;;;;;;;9.90;5.30;;;;;;;8.15;100.00;99218.50;5350433;26;20363;-78
2024/04/16 09:20:20;;;;;;;9.80;5.43;;;;;;;8.12;100.00;99230.75;5346261;26;20518;-78
2024/04/16 09:22:51;;;;;;;13.10;5.60;;;;;;;8.16;100.00;99233.66;5348805;26;21224;-78
2024/04/16 09:25:22;;;;;;;14.60;5.80;;;;;;;8.47;100.00;99233.09;5350898;26;20328;-78
2024/04/16 09:27:54;;;;;;;10.00;5.60;;;;;;;8.24;100.00;99240.28;5335630;26;20926;-79
2024/04/16 09:30:27;;;;;;;9.55;5.20;;;;;;;8.48;100.00;99237.44;5338226;26;20889;-78
2024/04/16 09:33:01;;;;;;;10.35;5.03;;;;;;;8.56;100.00;99246.75;5352605;26;20360;-78
2024/04/16 09:35:30;;;;;;;11.38;5.43;;;;;;;8.39;100.00;99250.03;5348434;26;20896;-78
2024/04/16 09:38:03;;;;;;;10.40;4.82;;;;;;;8.59;100.00;99251.56;5359562;26;20354;-78
2024/04/16 09:40:34;;;;;;;14.07;4.72;;;;;;;8.67;100.00;99248.97;5385668;26;21100;-78
2024/04/16 09:43:06;;;;;;;8.43;3.97;;;;;;;8.72;100.00;99253.50;5356027;26;20384;-78
2024/04/16 09:45:34;;;;;;;9.48;3.90;;;;;;;8.59;100.00;99254.28;5370521;26;20338;-78
2024/04/16 09:48:06;;;;;;;9.25;3.60;;;;;;;8.75;100.00;99252.06;5362013;26;20356;-78
2024/04/16 09:50:36;;;;;;;9.05;3.35;;;;;;;8.89;100.00;99260.19;5354398;26;20336;-78
2024/04/16 09:53:09;;;;;;;7.65;3.15;;;;;;;9.05;100.00;99269.63;5387425;26;20315;-78
2024/04/16 09:55:41;;;;;;;6.10;2.95;;;;;;;9.23;100.00;99269.81;5348194;26;20334;-78
2024/04/16 09:58:13;;;;;;;6.25;2.70;;;;;;;9.05;100.00;99269.63;5376946;26;20349;-79
2024/04/16 10:00:41;;;;;;;5.97;2.60;;;;;;;8.86;100.00;99272.47;5361646;26;20352;-78
2024/04/16 10:03:13;;;;;;;7.72;3.20;;;;;;;8.60;100.00;99269.47;5353901;26;20338;-78
2024/04/16 10:05:41;;;;;;;8.87;3.57;;;;;;;8.48;100.00;99275.41;5360847;26;20323;-78
2024/04/16 10:08:11;;;;;;;8.38;3.50;;;;;;;8.68;100.00;99274.97;5350591;26;20996;-78
2024/04/16 10:10:42;;;;;;;7.55;3.50;;;;;;;8.88;100.00;99280.28;5342710;26;20331;-79
2024/04/16 10:13:13;;;;;;;10.38;3.55;;;;;;;9.06;100.00;99276.66;5334655;26;20383;-78
2024/04/16 10:15:42;;;;;;;7.57;3.47;;;;;;;9.01;100.00;99277.56;5371077;26;20361;-78
2024/04/16 10:18:13;;;;;;;8.75;3.20;;;;;;;9.12;100.00;99282.78;5345741;26;20884;-78
2024/04/16 10:20:47;;;;;;;7.63;3.60;;;;;;;8.87;100.00;99279.50;5371435;26;20948;-78
2024/04/16 10:23:18;;;;;;;7.63;3.83;;;;;;;8.93;100.00;99280.19;5368070;26;20858;-78
2024/04/16 10:25:52;;;;;;;9.68;3.67;;;;;;;8.84;100.00;99285.53;5354877;26;20347;-78
2024/04/16 10:28:26;;;;;;;8.07;3.73;;;;;;;8.51;100.00;99282.91;5365906;26;20334;-78
2024/04/16 10:30:59;;;;;;;9.18;4.07;;;;;;;8.78;100.00;99284.84;5336932;26;20334;-78
2024/04/16 10:33:29;;;;;;;9.38;3.88;;;;;;;8.85;100.00;99292.53;5359188;26;20335;-79
2024/04/16 10:35:57;;;;;;;8.80;4.10;;;;;;;9.06;100.00;99295.66;5351454;26;20904;-78
2024/04/16 10:38:27;;;;;;;7.95;3.60;;;;;;;8.70;100.00;99296.41;5307119;26;20356;-77
2024/04/16 10:40:57;;;;;;;8.73;3.50;;;;;;;9.24;100.00;99299.34;5345866;26;20356;-78
2024/04/16 10:43:29;;;;;;;6.97;3.50;;;;;;;9.31;100.00;99297.03;5364698;26;20372;-78
2024/04/16 10:45:56;;;;;;;7.70;3.13;;;;;;;9.87;100.00;99294.94;5352545;26;20804;-79
2024/04/16 10:48:26;;;;;;;9.43;3.20;;;;;;;9.39;100.00;99292.78;5359141;26;20341;-77
2024/04/16 10:50:54;;;;;;;7.63;3.40;;;;;;;9.57;100.00;99307.31;5359515;26;20907;-78
2024/04/16 10:53:24;;;;;;;6.88;3.10;;;;;;;10.06;100.00;99284.97;5344829;26;20449;-78
2024/04/16 10:55:52;;;;;;;6.35;2.78;;;;;;;9.86;100.00;99295.25;5349479;26;20343;-78
2024/04/16 10:58:25;;;;;;;5.97;3.10;;;;;;;9.85;100.00;99294.41;5331693;26;20339;-78
2024/04/16 11:00:53;;;;;;;9.20;3.58;;;;;;;10.25;100.00;99301.88;5332458;26;20330;-78
2024/04/16 11:03:23;;;;;;;7.22;3.00;;;;;;;10.09;100.00;99300.66;5345180;26;20353;-78
2024/04/16 11:05:50;;;;;;;5.20;2.70;;;;;;;10.11;100.00;99298.41;5356292;26;20484;-78
2024/04/16 11:08:20;;;;;;;5.35;2.65;;;;;;;10.50;100.00;99296.91;5356332;26;20327;-78
2024/04/16 11:10:49;;;;;;;4.32;2.40;;;;;;;10.68;100.00;99295.06;5340712;26;20331;-78
2024/04/16 11:13:20;;;;;;;6.75;2.78;;;;;;;11.14;100.00;99293.72;5337967;26;20335;-78
2024/04/16 11:15:51;;;;;;;6.23;2.50;;;;;;;11.08;100.00;99286.84;5342113;26;20339;-78
2024/04/16 11:18:21;;;;;;;5.82;2.20;;;;;;;10.95;100.00;99302.19;5343354;26;20379;-78
2024/04/16 11:20:49;;;;;;;5.13;1.70;;;;;;;10.61;100.00;99303.66;5349489;26;20331;-78
2024/04/16 11:23:19;;;;;;;7.63;1.80;;;;;;;10.43;100.00;99305.50;5367152;26;20332;-77
2024/04/16 11:25:47;;;;;;;4.40;1.40;;;;;;;10.18;100.00;99306.94;5375641;26;20353;-78
2024/04/16 11:28:18;;;;;;;3.90;1.20;;;;;;;10.03;100.00;99313.56;5347292;26;20429;-78
2024/04/16 11:30:57;;;;;;;2.90;1.10;;;;;;;9.78;100.00;99315.78;5371122;26;20367;-78
2024/04/16 11:33:28;;;;;;;5.53;1.17;;;;;;;9.76;100.00;99328.88;5342001;26;20363;-78
2024/04/16 11:36:00;;;;;;;4.50;1.10;;;;;;;9.60;100.00;99322.19;5348292;26;20339;-78
2024/04/16 11:38:30;;;;;;;3.10;1.10;;;;;;;9.84;100.00;99336.28;5347988;26;20700;-78
2024/04/16 11:40:57;;;;;;;2.90;1.00;;;;;;;9.76;100.00;99328.88;5337657;26;20683;-78
2024/04/16 11:43:31;;;;;;;4.10;1.00;;;;;;;9.27;100.00;99336.75;5373995;26;20343;-78
2024/04/16 11:46:04;;;;;;;2.13;1.00;;;;;;;9.35;100.00;99348.81;5345030;26;20322;-78